ARCT2: Red River, ARthur City

                                SHEF ID:       ARCT2     Red River at Arthur City, TX
STATION TYPE: Stream Gauge
Regulating: Stage = 27.00, Flow = 84609

PRECIP ELEVATION STAGE STAGE(2) RIV-FLOW BAT-LOAD
in ft ft ft cfs volt
Ccp-Rev Ccp-Rev Ccp-Rev Ccp-Rev Ccp-Rev Ccp-Rev
(America/Chicago)
03/09 00:00 0.00 ---- 9.95 ---- 10816 12.57
03/09 01:00 0.00 ---- 9.93 ---- 10769 12.49
03/09 02:00 0.00 ---- 9.91 ---- 10723 12.49
03/09 03:00 0.00 ---- 9.89 ---- 10677 12.49
03/09 04:00 0.00 ---- 9.88 ---- 10654 12.49
03/09 05:00 0.00 ---- 9.87 ---- 10631 12.41
03/09 06:00 0.00 ---- 9.89 ---- 10677 12.41
03/09 07:00 0.00 ---- 9.94 ---- 10792 12.41
03/09 08:00 0.00 ---- 10.03 ---- 11002 12.41
03/09 09:00 0.00 ---- 10.12 ---- 11213 12.41
03/09 10:00 0.00 ---- 10.28 ---- 11593 12.89
03/09 11:00 0.00 ---- 10.42 ---- 11930 13.60
03/09 12:00 0.00 ---- 10.57 ---- 12296 13.60
03/09 13:00 0.00 ---- 10.74 ---- 12716 13.60
03/09 14:00 0.00 ---- 10.89 ---- 13092 13.60
03/09 15:00 0.00 ---- 11.01 ---- 13397 13.60
03/09 16:00 0.00 ---- 11.10 ---- 13627 13.53
03/09 17:00 0.00 ---- 11.18 ---- 13833 13.53
03/09 18:00 0.00 ---- 11.24 ---- 13988 ----
03/09 19:00 0.00 ---- 11.27 ---- 14066 13.44
03/09 20:00 0.00 ---- 11.26 ---- 14040 13.13
03/09 21:00 0.00 ---- 11.25 ---- 14014 12.65
03/09 22:00 0.00 ---- 11.21 ---- 13910 12.57
03/09 23:00 0.00 ---- 11.17 ---- 13807 12.57
Data processed at Tue 10Mar2026 04:30 GMT

NOTICE: If you are parsing this page

Please convert to using our Data API. Starting early 2026 we will be migrating to: https://water.usace.army.mil with modern pages rendered in JavaScript. When this migration completes you will no longer be able to scrape this page! CWMSDataAPI (CDA)

Timeseries IDs (TSIDs)

TSIDs used from left to right in the data table
ARTH.Precip-Inc.Total.1Hour.1Hour.Ccp-Rev
ARTH.Stage.Inst.1Hour.0.Ccp-Rev
ARTH.Stage-Alt.Inst.1Hour.0.Ccp-Rev
ARTH.Flow.Inst.1Hour.0.Ccp-Rev
ARTH.Volt-Battery Load.Inst.1Hour.0.Ccp-Rev

                            

All information presented herein is the property of the government of the United States of America and may be revised or deleted at any time without prior notice. Dissemination of this information without the expressed written consent of the Public Affairs Office, Tulsa District U.S. Army Corps of Engineers is strictly prohibited. These data are gathered electronically and, as presented, have NOT undergone any form of quality control. These data are NOT guaranteed to be valid or correct.